sensor_id;sensor_type;location;lat;lon;timestamp;pressure;altitude;pressure_sealevel;temperature;humidity
76598;BME280;65486;53.144;18.134;2023-11-21T00:01:57;100474.34;;;0.45;100.00
76598;BME280;65486;53.144;18.134;2023-11-21T00:04:26;100476.47;;;0.44;100.00
76598;BME280;65486;53.144;18.134;2023-11-21T00:06:58;100481.62;;;0.43;100.00
76598;BME280;65486;53.144;18.134;2023-11-21T00:09:25;100481.83;;;0.43;100.00
76598;BME280;65486;53.144;18.134;2023-11-21T00:11:54;100484.70;;;0.41;100.00
76598;BME280;65486;53.144;18.134;2023-11-21T00:14:21;100492.58;;;0.41;100.00
76598;BME280;65486;53.144;18.134;2023-11-21T00:16:49;100495.92;;;0.41;100.00
76598;BME280;65486;53.144;18.134;2023-11-21T00:19:17;100505.58;;;0.42;100.00
76598;BME280;65486;53.144;18.134;2023-11-21T00:21:59;100504.63;;;0.43;100.00
76598;BME280;65486;53.144;18.134;2023-11-21T00:24:26;100506.33;;;0.42;100.00
76598;BME280;65486;53.144;18.134;2023-11-21T00:26:54;100499.81;;;0.42;100.00
76598;BME280;65486;53.144;18.134;2023-11-21T00:29:24;100507.11;;;0.42;100.00
76598;BME280;65486;53.144;18.134;2023-11-21T00:31:52;100506.55;;;0.40;100.00
76598;BME280;65486;53.144;18.134;2023-11-21T00:34:22;100510.58;;;0.40;100.00
76598;BME280;65486;53.144;18.134;2023-11-21T00:36:49;100515.15;;;0.37;100.00
76598;BME280;65486;53.144;18.134;2023-11-21T00:39:17;100517.05;;;0.33;100.00
76598;BME280;65486;53.144;18.134;2023-11-21T00:41:44;100515.81;;;0.30;100.00
76598;BME280;65486;53.144;18.134;2023-11-21T00:44:12;100514.61;;;0.27;100.00
76598;BME280;65486;53.144;18.134;2023-11-21T00:46:40;100522.42;;;0.25;100.00
76598;BME280;65486;53.144;18.134;2023-11-21T00:49:08;100529.92;;;0.23;100.00
76598;BME280;65486;53.144;18.134;2023-11-21T00:51:35;100534.40;;;0.20;100.00
76598;BME280;65486;53.144;18.134;2023-11-21T00:54:03;100540.63;;;0.18;100.00
76598;BME280;65486;53.144;18.134;2023-11-21T00:56:34;100540.42;;;0.16;100.00
76598;BME280;65486;53.144;18.134;2023-11-21T00:59:03;100544.62;;;0.16;100.00
76598;BME280;65486;53.144;18.134;2023-11-21T01:01:32;100543.92;;;0.12;100.00
76598;BME280;65486;53.144;18.134;2023-11-21T01:04:01;100539.80;;;0.08;100.00
76598;BME280;65486;53.144;18.134;2023-11-21T01:06:32;100536.57;;;0.06;100.00
76598;BME280;65486;53.144;18.134;2023-11-21T01:09:00;100539.11;;;0.05;100.00
76598;BME280;65486;53.144;18.134;2023-11-21T01:11:28;100540.52;;;0.05;100.00
76598;BME280;65486;53.144;18.134;2023-11-21T01:13:56;100544.86;;;0.07;100.00
76598;BME280;65486;53.144;18.134;2023-11-21T01:16:25;100555.34;;;0.07;100.00
76598;BME280;65486;53.144;18.134;2023-11-21T01:18:52;100560.35;;;0.05;100.00
76598;BME280;65486;53.144;18.134;2023-11-21T01:21:22;100558.46;;;0.05;100.00
76598;BME280;65486;53.144;18.134;2023-11-21T01:24:05;100559.39;;;0.05;100.00
76598;BME280;65486;53.144;18.134;2023-11-21T01:26:35;100555.86;;;0.05;100.00
76598;BME280;65486;53.144;18.134;2023-11-21T01:29:05;100564.50;;;0.07;100.00
76598;BME280;65486;53.144;18.134;2023-11-21T01:31:34;100569.29;;;0.08;100.00
76598;BME280;65486;53.144;18.134;2023-11-21T01:34:05;100568.60;;;0.08;100.00
76598;BME280;65486;53.144;18.134;2023-11-21T01:36:32;100569.32;;;0.08;100.00
76598;BME280;65486;53.144;18.134;2023-11-21T01:39:01;100573.54;;;0.07;100.00
76598;BME280;65486;53.144;18.134;2023-11-21T01:41:28;100571.69;;;0.08;100.00
76598;BME280;65486;53.144;18.134;2023-11-21T01:43:56;100569.09;;;0.08;100.00
76598;BME280;65486;53.144;18.134;2023-11-21T01:46:23;100570.34;;;0.09;100.00
76598;BME280;65486;53.144;18.134;2023-11-21T01:48:52;100572.44;;;0.09;100.00
76598;BME280;65486;53.144;18.134;2023-11-21T01:51:23;100576.31;;;0.10;100.00
76598;BME280;65486;53.144;18.134;2023-11-21T01:53:56;100579.31;;;0.11;100.00
76598;BME280;65486;53.144;18.134;2023-11-21T01:56:28;100581.23;;;0.10;100.00
76598;BME280;65486;53.144;18.134;2023-11-21T01:59:01;100584.69;;;0.10;100.00
76598;BME280;65486;53.144;18.134;2023-11-21T02:01:35;100582.84;;;0.08;100.00
76598;BME280;65486;53.144;18.134;2023-11-21T02:04:05;100580.86;;;0.06;100.00
76598;BME280;65486;53.144;18.134;2023-11-21T02:06:39;100585.06;;;0.08;100.00
76598;BME280;65486;53.144;18.134;2023-11-21T02:09:07;100584.77;;;0.05;100.00
76598;BME280;65486;53.144;18.134;2023-11-21T02:11:38;100584.96;;;0.02;100.00
76598;BME280;65486;53.144;18.134;2023-11-21T02:14:08;100583.13;;;-0.02;100.00
76598;BME280;65486;53.144;18.134;2023-11-21T02:16:39;100586.59;;;-0.04;100.00
76598;BME280;65486;53.144;18.134;2023-11-21T02:19:11;100591.75;;;-0.05;100.00
76598;BME280;65486;53.144;18.134;2023-11-21T02:21:43;100596.81;;;-0.05;100.00
76598;BME280;65486;53.144;18.134;2023-11-21T02:24:14;100598.41;;;-0.05;100.00
76598;BME280;65486;53.144;18.134;2023-11-21T02:26:41;100595.05;;;-0.05;100.00
76598;BME280;65486;53.144;18.134;2023-11-21T02:29:08;100597.42;;;-0.06;100.00
76598;BME280;65486;53.144;18.134;2023-11-21T02:31:39;100597.30;;;-0.08;100.00
76598;BME280;65486;53.144;18.134;2023-11-21T02:34:17;100594.67;;;-0.12;100.00
76598;BME280;65486;53.144;18.134;2023-11-21T02:36:44;100600.64;;;-0.15;100.00
76598;BME280;65486;53.144;18.134;2023-11-21T02:39:13;100604.00;;;-0.18;100.00
76598;BME280;65486;53.144;18.134;2023-11-21T02:41:44;100608.38;;;-0.18;100.00
76598;BME280;65486;53.144;18.134;2023-11-21T02:44:14;100607.92;;;-0.20;100.00
76598;BME280;65486;53.144;18.134;2023-11-21T02:46:42;100606.13;;;-0.21;99.96
76598;BME280;65486;53.144;18.134;2023-11-21T02:49:26;100608.28;;;-0.21;99.96
76598;BME280;65486;53.144;18.134;2023-11-21T02:52:12;100613.38;;;-0.23;99.97
76598;BME280;65486;53.144;18.134;2023-11-21T02:54:43;100617.67;;;-0.25;99.90
76598;BME280;65486;53.144;18.134;2023-11-21T02:57:14;100617.73;;;-0.25;99.96
76598;BME280;65486;53.144;18.134;2023-11-21T02:59:45;100618.27;;;-0.25;99.91
76598;BME280;65486;53.144;18.134;2023-11-21T03:02:13;100611.05;;;-0.32;99.40
76598;BME280;65486;53.144;18.134;2023-11-21T03:04:40;100621.45;;;-0.29;99.11
76598;BME280;65486;53.144;18.134;2023-11-21T03:07:08;100627.48;;;-0.32;99.00
76598;BME280;65486;53.144;18.134;2023-11-21T03:09:37;100632.89;;;-0.32;99.18
76598;BME280;65486;53.144;18.134;2023-11-21T03:12:07;100636.31;;;-0.32;99.38
76598;BME280;65486;53.144;18.134;2023-11-21T03:14:36;100640.52;;;-0.31;99.53
76598;BME280;65486;53.144;18.134;2023-11-21T03:17:03;100644.20;;;-0.29;99.14
76598;BME280;65486;53.144;18.134;2023-11-21T03:19:35;100645.42;;;-0.31;99.24
76598;BME280;65486;53.144;18.134;2023-11-21T03:22:04;100642.94;;;-0.31;99.22
76598;BME280;65486;53.144;18.134;2023-11-21T03:24:33;100642.75;;;-0.31;99.56
76598;BME280;65486;53.144;18.134;2023-11-21T03:27:01;100640.88;;;-0.32;99.51
76598;BME280;65486;53.144;18.134;2023-11-21T03:29:35;100646.77;;;-0.33;99.05
76598;BME280;65486;53.144;18.134;2023-11-21T03:32:02;100651.04;;;-0.34;99.01
76598;BME280;65486;53.144;18.134;2023-11-21T03:34:29;100647.21;;;-0.36;98.90
76598;BME280;65486;53.144;18.134;2023-11-21T03:36:56;100652.47;;;-0.38;98.98
76598;BME280;65486;53.144;18.134;2023-11-21T03:39:24;100656.16;;;-0.40;98.68
76598;BME280;65486;53.144;18.134;2023-11-21T03:41:52;100660.05;;;-0.41;98.87
76598;BME280;65486;53.144;18.134;2023-11-21T03:44:19;100657.19;;;-0.43;98.32
76598;BME280;65486;53.144;18.134;2023-11-21T03:46:49;100650.34;;;-0.46;98.54
76598;BME280;65486;53.144;18.134;2023-11-21T03:49:19;100656.48;;;-0.47;98.48
76598;BME280;65486;53.144;18.134;2023-11-21T03:51:50;100652.30;;;-0.49;98.62
76598;BME280;65486;53.144;18.134;2023-11-21T03:54:42;100649.77;;;-0.49;98.78
76598;BME280;65486;53.144;18.134;2023-11-21T03:57:12;100652.34;;;-0.51;98.34
76598;BME280;65486;53.144;18.134;2023-11-21T03:59:42;100648.47;;;-0.54;98.49
76598;BME280;65486;53.144;18.134;2023-11-21T04:02:13;100640.29;;;-0.62;98.78
76598;BME280;65486;53.144;18.134;2023-11-21T04:04:44;100654.84;;;-0.56;98.36
76598;BME280;65486;53.144;18.134;2023-11-21T04:07:13;100659.51;;;-0.57;98.29
76598;BME280;65486;53.144;18.134;2023-11-21T04:09:42;100664.61;;;-0.58;98.43
76598;BME280;65486;53.144;18.134;2023-11-21T04:12:10;100665.27;;;-0.57;98.66
76598;BME280;65486;53.144;18.134;2023-11-21T04:14:40;100666.48;;;-0.57;98.74
76598;BME280;65486;53.144;18.134;2023-11-21T04:17:10;100669.96;;;-0.56;98.82
76598;BME280;65486;53.144;18.134;2023-11-21T04:19:37;100669.62;;;-0.54;98.81
76598;BME280;65486;53.144;18.134;2023-11-21T04:22:06;100675.13;;;-0.53;98.69
76598;BME280;65486;53.144;18.134;2023-11-21T04:24:33;100680.36;;;-0.53;98.44
76598;BME280;65486;53.144;18.134;2023-11-21T04:27:00;100687.73;;;-0.56;98.11
76598;BME280;65486;53.144;18.134;2023-11-21T04:29:27;100683.00;;;-0.59;97.72
76598;BME280;65486;53.144;18.134;2023-11-21T04:31:57;100687.52;;;-0.61;97.92
76598;BME280;65486;53.144;18.134;2023-11-21T04:34:24;100691.20;;;-0.62;97.82
76598;BME280;65486;53.144;18.134;2023-11-21T04:36:52;100692.59;;;-0.63;97.65
76598;BME280;65486;53.144;18.134;2023-11-21T04:39:27;100693.88;;;-0.65;97.42
76598;BME280;65486;53.144;18.134;2023-11-21T04:41:55;100698.05;;;-0.67;97.09
76598;BME280;65486;53.144;18.134;2023-11-21T04:44:24;100699.60;;;-0.70;97.24
76598;BME280;65486;53.144;18.134;2023-11-21T04:46:54;100702.09;;;-0.71;97.46
76598;BME280;65486;53.144;18.134;2023-11-21T04:49:22;100708.74;;;-0.73;97.36
76598;BME280;65486;53.144;18.134;2023-11-21T04:51:51;100711.52;;;-0.74;97.79
76598;BME280;65486;53.144;18.134;2023-11-21T04:54:18;100715.73;;;-0.72;97.96
76598;BME280;65486;53.144;18.134;2023-11-21T04:56:47;100722.67;;;-0.73;97.36
76598;BME280;65486;53.144;18.134;2023-11-21T04:59:15;100726.91;;;-0.76;96.78
76598;BME280;65486;53.144;18.134;2023-11-21T05:01:42;100732.55;;;-0.78;96.34
76598;BME280;65486;53.144;18.134;2023-11-21T05:04:09;100738.99;;;-0.79;97.09
76598;BME280;65486;53.144;18.134;2023-11-21T05:06:37;100745.77;;;-0.78;97.35
76598;BME280;65486;53.144;18.134;2023-11-21T05:09:05;100742.64;;;-0.78;97.31
76598;BME280;65486;53.144;18.134;2023-11-21T05:11:37;100745.21;;;-0.77;97.33
76598;BME280;65486;53.144;18.134;2023-11-21T05:14:08;100744.20;;;-0.77;97.51
76598;BME280;65486;53.144;18.134;2023-11-21T05:16:35;100744.36;;;-0.77;97.55
76598;BME280;65486;53.144;18.134;2023-11-21T05:19:06;100741.93;;;-0.78;97.53
76598;BME280;65486;53.144;18.134;2023-11-21T05:21:36;100746.48;;;-0.79;97.50
76598;BME280;65486;53.144;18.134;2023-11-21T05:24:05;100743.04;;;-0.80;97.38
76598;BME280;65486;53.144;18.134;2023-11-21T05:26:34;100744.86;;;-0.80;97.34
76598;BME280;65486;53.144;18.134;2023-11-21T05:29:02;100745.81;;;-0.81;97.57
76598;BME280;65486;53.144;18.134;2023-11-21T05:31:30;100751.75;;;-0.81;97.19
76598;BME280;65486;53.144;18.134;2023-11-21T05:33:57;100751.85;;;-0.82;97.06
76598;BME280;65486;53.144;18.134;2023-11-21T05:36:24;100761.39;;;-0.85;96.88
76598;BME280;65486;53.144;18.134;2023-11-21T05:38:51;100770.11;;;-0.83;97.20
76598;BME280;65486;53.144;18.134;2023-11-21T05:41:19;100772.36;;;-0.85;96.95
76598;BME280;65486;53.144;18.134;2023-11-21T05:43:47;100770.71;;;-0.87;96.68
76598;BME280;65486;53.144;18.134;2023-11-21T05:46:17;100778.15;;;-0.87;96.97
76598;BME280;65486;53.144;18.134;2023-11-21T05:48:45;100784.70;;;-0.86;97.20
76598;BME280;65486;53.144;18.134;2023-11-21T05:51:15;100782.68;;;-0.85;97.10
76598;BME280;65486;53.144;18.134;2023-11-21T05:53:47;100787.72;;;-0.85;96.50
76598;BME280;65486;53.144;18.134;2023-11-21T05:56:15;100789.23;;;-0.86;96.53
76598;BME280;65486;53.144;18.134;2023-11-21T05:58:57;100792.27;;;-0.86;96.10
76598;BME280;65486;53.144;18.134;2023-11-21T06:01:27;100791.48;;;-0.87;95.93
76598;BME280;65486;53.144;18.134;2023-11-21T06:04:00;100785.92;;;-0.93;96.20
76598;BME280;65486;53.144;18.134;2023-11-21T06:06:29;100796.02;;;-0.85;96.08
76598;BME280;65486;53.144;18.134;2023-11-21T06:08:56;100801.66;;;-0.86;96.31
76598;BME280;65486;53.144;18.134;2023-11-21T06:11:24;100811.00;;;-0.85;96.40
76598;BME280;65486;53.144;18.134;2023-11-21T06:13:53;100818.89;;;-0.84;95.96
76598;BME280;65486;53.144;18.134;2023-11-21T06:16:22;100824.96;;;-0.86;95.77
76598;BME280;65486;53.144;18.134;2023-11-21T06:18:51;100828.80;;;-0.88;94.98
76598;BME280;65486;53.144;18.134;2023-11-21T06:21:18;100836.02;;;-0.90;94.88
76598;BME280;65486;53.144;18.134;2023-11-21T06:23:46;100840.58;;;-0.92;93.99
76598;BME280;65486;53.144;18.134;2023-11-21T06:26:15;100847.28;;;-0.94;94.01
76598;BME280;65486;53.144;18.134;2023-11-21T06:28:43;100848.42;;;-0.95;94.70
76598;BME280;65486;53.144;18.134;2023-11-21T06:31:14;100859.45;;;-0.93;94.82
76598;BME280;65486;53.144;18.134;2023-11-21T06:33:42;100860.91;;;-0.94;94.81
76598;BME280;65486;53.144;18.134;2023-11-21T06:36:10;100866.49;;;-0.92;95.03
76598;BME280;65486;53.144;18.134;2023-11-21T06:38:38;100867.44;;;-0.90;94.06
76598;BME280;65486;53.144;18.134;2023-11-21T06:41:09;100867.73;;;-0.91;93.31
76598;BME280;65486;53.144;18.134;2023-11-21T06:43:45;100867.84;;;-0.93;93.00
76598;BME280;65486;53.144;18.134;2023-11-21T06:46:17;100871.56;;;-0.92;94.16
76598;BME280;65486;53.144;18.134;2023-11-21T06:48:46;100873.45;;;-0.91;92.82
76598;BME280;65486;53.144;18.134;2023-11-21T06:51:16;100877.29;;;-0.91;91.84
76598;BME280;65486;53.144;18.134;2023-11-21T06:53:45;100877.48;;;-0.93;91.22
76598;BME280;65486;53.144;18.134;2023-11-21T06:56:21;100879.90;;;-0.94;91.96
76598;BME280;65486;53.144;18.134;2023-11-21T06:58:49;100885.04;;;-0.93;92.81
76598;BME280;65486;53.144;18.134;2023-11-21T07:01:27;100888.73;;;-0.92;92.89
76598;BME280;65486;53.144;18.134;2023-11-21T07:03:55;100892.11;;;-0.90;93.00
76598;BME280;65486;53.144;18.134;2023-11-21T07:06:22;100895.73;;;-0.88;93.32
76598;BME280;65486;53.144;18.134;2023-11-21T07:08:59;100897.73;;;-0.86;92.77
76598;BME280;65486;53.144;18.134;2023-11-21T07:11:30;100903.24;;;-0.83;93.33
76598;BME280;65486;53.144;18.134;2023-11-21T07:13:59;100904.31;;;-0.81;92.29
76598;BME280;65486;53.144;18.134;2023-11-21T07:16:27;100905.90;;;-0.81;92.15
76598;BME280;65486;53.144;18.134;2023-11-21T07:18:57;100906.02;;;-0.80;91.92
76598;BME280;65486;53.144;18.134;2023-11-21T07:21:24;100910.13;;;-0.79;91.48
76598;BME280;65486;53.144;18.134;2023-11-21T07:23:52;100910.52;;;-0.78;92.25
76598;BME280;65486;53.144;18.134;2023-11-21T07:26:20;100916.83;;;-0.76;92.70
76598;BME280;65486;53.144;18.134;2023-11-21T07:28:47;100915.73;;;-0.74;92.53
76598;BME280;65486;53.144;18.134;2023-11-21T07:31:15;100924.59;;;-0.72;92.06
76598;BME280;65486;53.144;18.134;2023-11-21T07:33:42;100929.09;;;-0.72;92.06
76598;BME280;65486;53.144;18.134;2023-11-21T07:36:10;100932.27;;;-0.72;92.70
76598;BME280;65486;53.144;18.134;2023-11-21T07:38:38;100934.10;;;-0.72;92.13
76598;BME280;65486;53.144;18.134;2023-11-21T07:41:06;100944.80;;;-0.72;91.99
76598;BME280;65486;53.144;18.134;2023-11-21T07:43:37;100942.73;;;-0.71;91.31
76598;BME280;65486;53.144;18.134;2023-11-21T07:46:05;100940.81;;;-0.70;92.19
76598;BME280;65486;53.144;18.134;2023-11-21T07:48:33;100939.69;;;-0.68;90.93
76598;BME280;65486;53.144;18.134;2023-11-21T07:51:02;100940.29;;;-0.67;91.27
76598;BME280;65486;53.144;18.134;2023-11-21T07:53:34;100935.56;;;-0.63;91.09
76598;BME280;65486;53.144;18.134;2023-11-21T07:56:04;100935.67;;;-0.57;90.75
76598;BME280;65486;53.144;18.134;2023-11-21T07:58:32;100942.01;;;-0.48;90.11
76598;BME280;65486;53.144;18.134;2023-11-21T08:01:03;100947.48;;;-0.42;90.10
76598;BME280;65486;53.144;18.134;2023-11-21T08:03:31;100946.08;;;-0.41;90.45
76598;BME280;65486;53.144;18.134;2023-11-21T08:06:01;100954.61;;;-0.38;90.35
76598;BME280;65486;53.144;18.134;2023-11-21T08:08:30;100955.75;;;-0.36;90.00
76598;BME280;65486;53.144;18.134;2023-11-21T08:11:00;100955.13;;;-0.36;90.08
76598;BME280;65486;53.144;18.134;2023-11-21T08:13:31;100954.88;;;-0.33;89.89
76598;BME280;65486;53.144;18.134;2023-11-21T08:15:58;100957.27;;;-0.33;88.80
76598;BME280;65486;53.144;18.134;2023-11-21T08:18:29;100961.04;;;-0.31;89.30
76598;BME280;65486;53.144;18.134;2023-11-21T08:20:57;100958.02;;;-0.28;89.06
76598;BME280;65486;53.144;18.134;2023-11-21T08:23:24;100954.45;;;-0.27;88.17
76598;BME280;65486;53.144;18.134;2023-11-21T08:26:00;100954.17;;;-0.28;88.39
76598;BME280;65486;53.144;18.134;2023-11-21T08:28:30;100960.48;;;-0.29;88.32
76598;BME280;65486;53.144;18.134;2023-11-21T08:30:58;100958.30;;;-0.29;89.43
76598;BME280;65486;53.144;18.134;2023-11-21T08:33:26;100964.27;;;-0.27;89.27
76598;BME280;65486;53.144;18.134;2023-11-21T08:35:55;100968.30;;;-0.23;89.51
76598;BME280;65486;53.144;18.134;2023-11-21T08:38:24;100964.93;;;-0.16;89.12
76598;BME280;65486;53.144;18.134;2023-11-21T08:40:54;100962.70;;;-0.08;87.54
76598;BME280;65486;53.144;18.134;2023-11-21T08:43:21;100959.23;;;-0.01;86.80
76598;BME280;65486;53.144;18.134;2023-11-21T08:45:49;100959.66;;;0.07;86.87
76598;BME280;65486;53.144;18.134;2023-11-21T08:48:16;100961.39;;;0.09;86.94
76598;BME280;65486;53.144;18.134;2023-11-21T08:50:44;100964.94;;;0.12;86.53
76598;BME280;65486;53.144;18.134;2023-11-21T08:53:11;100967.40;;;0.10;86.33
76598;BME280;65486;53.144;18.134;2023-11-21T08:55:39;100967.61;;;0.10;87.13
76598;BME280;65486;53.144;18.134;2023-11-21T08:58:07;100966.75;;;0.15;87.70
76598;BME280;65486;53.144;18.134;2023-11-21T09:00:34;100971.40;;;0.30;87.42
76598;BME280;65486;53.144;18.134;2023-11-21T09:03:02;100972.64;;;0.52;87.40
76598;BME280;65486;53.144;18.134;2023-11-21T09:05:31;100975.55;;;0.70;85.78
76598;BME280;65486;53.144;18.134;2023-11-21T09:07:58;100977.77;;;0.87;84.84
76598;BME280;65486;53.144;18.134;2023-11-21T09:10:25;100980.37;;;1.06;83.80
76598;BME280;65486;53.144;18.134;2023-11-21T09:12:52;100984.31;;;1.17;83.19
76598;BME280;65486;53.144;18.134;2023-11-21T09:15:20;100989.60;;;1.25;82.27
76598;BME280;65486;53.144;18.134;2023-11-21T09:17:51;100983.31;;;1.33;83.88
76598;BME280;65486;53.144;18.134;2023-11-21T09:20:18;100981.17;;;1.52;83.36
76598;BME280;65486;53.144;18.134;2023-11-21T09:22:54;100983.83;;;1.57;80.73
76598;BME280;65486;53.144;18.134;2023-11-21T09:25:22;100986.41;;;1.52;80.98
76598;BME280;65486;53.144;18.134;2023-11-21T09:27:50;100991.65;;;1.49;81.59
76598;BME280;65486;53.144;18.134;2023-11-21T09:30:17;100993.74;;;1.37;79.91
76598;BME280;65486;53.144;18.134;2023-11-21T09:32:45;101001.89;;;1.23;80.22
76598;BME280;65486;53.144;18.134;2023-11-21T09:35:13;101006.88;;;1.05;78.84
76598;BME280;65486;53.144;18.134;2023-11-21T09:37:44;101012.37;;;0.94;82.33
76598;BME280;65486;53.144;18.134;2023-11-21T09:40:13;101011.91;;;0.91;82.83
76598;BME280;65486;53.144;18.134;2023-11-21T09:42:53;101020.63;;;0.91;82.69
76598;BME280;65486;53.144;18.134;2023-11-21T09:45:29;101022.95;;;0.90;82.46
76598;BME280;65486;53.144;18.134;2023-11-21T09:48:02;101020.56;;;0.88;83.68
76598;BME280;65486;53.144;18.134;2023-11-21T09:50:33;101031.13;;;0.91;82.56
76598;BME280;65486;53.144;18.134;2023-11-21T09:53:13;101026.44;;;0.87;80.10
76598;BME280;65486;53.144;18.134;2023-11-21T09:55:44;101027.15;;;0.81;81.64
76598;BME280;65486;53.144;18.134;2023-11-21T09:58:14;101027.16;;;0.79;81.69
76598;BME280;65486;53.144;18.134;2023-11-21T10:00:57;101020.88;;;0.78;80.54
76598;BME280;65486;53.144;18.134;2023-11-21T10:03:28;101024.24;;;0.73;80.02
76598;BME280;65486;53.144;18.134;2023-11-21T10:06:01;101025.13;;;0.68;81.98
76598;BME280;65486;53.144;18.134;2023-11-21T10:08:30;101023.83;;;0.66;81.66
76598;BME280;65486;53.144;18.134;2023-11-21T10:10:58;101024.42;;;0.64;82.31
76598;BME280;65486;53.144;18.134;2023-11-21T10:13:27;101024.83;;;0.62;82.71
76598;BME280;65486;53.144;18.134;2023-11-21T10:15:57;101020.83;;;0.59;83.57
76598;BME280;65486;53.144;18.134;2023-11-21T10:18:25;101025.22;;;0.60;82.99
76598;BME280;65486;53.144;18.134;2023-11-21T10:20:54;101024.35;;;0.54;81.08
76598;BME280;65486;53.144;18.134;2023-11-21T10:23:23;101031.85;;;0.50;82.23
76598;BME280;65486;53.144;18.134;2023-11-21T10:25:52;101033.89;;;0.47;81.62
76598;BME280;65486;53.144;18.134;2023-11-21T10:28:20;101034.50;;;0.45;82.04
76598;BME280;65486;53.144;18.134;2023-11-21T10:30:49;101034.85;;;0.43;81.69
76598;BME280;65486;53.144;18.134;2023-11-21T10:33:16;101046.34;;;0.42;81.80
76598;BME280;65486;53.144;18.134;2023-11-21T10:35:48;101048.73;;;0.40;80.81
76598;BME280;65486;53.144;18.134;2023-11-21T10:38:22;101052.33;;;0.38;81.20
76598;BME280;65486;53.144;18.134;2023-11-21T10:40:51;101050.79;;;0.37;80.79
76598;BME280;65486;53.144;18.134;2023-11-21T10:43:19;101050.73;;;0.38;81.99
76598;BME280;65486;53.144;18.134;2023-11-21T10:45:46;101052.23;;;0.41;82.13
76598;BME280;65486;53.144;18.134;2023-11-21T10:48:15;101053.56;;;0.44;83.08
76598;BME280;65486;53.144;18.134;2023-11-21T10:50:47;101051.93;;;0.48;81.89
76598;BME280;65486;53.144;18.134;2023-11-21T10:53:14;101052.10;;;0.53;82.80
76598;BME280;65486;53.144;18.134;2023-11-21T10:55:43;101056.67;;;0.58;82.54
76598;BME280;65486;53.144;18.134;2023-11-21T10:58:14;101060.17;;;0.61;81.38
76598;BME280;65486;53.144;18.134;2023-11-21T11:00:41;101060.73;;;0.59;81.27
76598;BME280;65486;53.144;18.134;2023-11-21T11:03:12;101060.55;;;0.61;81.56
76598;BME280;65486;53.144;18.134;2023-11-21T11:05:43;101058.33;;;0.60;81.84
76598;BME280;65486;53.144;18.134;2023-11-21T11:08:23;101055.84;;;0.56;81.47
76598;BME280;65486;53.144;18.134;2023-11-21T11:10:54;101064.72;;;0.53;81.79
76598;BME280;65486;53.144;18.134;2023-11-21T11:13:21;101065.97;;;0.52;80.86
76598;BME280;65486;53.144;18.134;2023-11-21T11:15:50;101065.73;;;0.51;81.38
76598;BME280;65486;53.144;18.134;2023-11-21T11:18:19;101069.98;;;0.50;80.98
76598;BME280;65486;53.144;18.134;2023-11-21T11:20:51;101072.16;;;0.48;80.03
76598;BME280;65486;53.144;18.134;2023-11-21T11:27:03;101079.50;;;0.41;80.28
76598;BME280;65486;53.144;18.134;2023-11-21T11:33:31;101090.52;;;0.51;81.98
76598;BME280;65486;53.144;18.134;2023-11-21T11:39:27;101094.23;;;0.62;82.33
76598;BME280;65486;53.144;18.134;2023-11-21T11:41:57;101102.56;;;0.66;82.21
76598;BME280;65486;53.144;18.134;2023-11-21T11:47:23;101120.47;;;0.71;81.91
76598;BME280;65486;53.144;18.134;2023-11-21T11:52:42;101125.98;;;0.78;81.66
76598;BME280;65486;53.144;18.134;2023-11-21T11:55:11;101126.65;;;0.76;79.87
76598;BME280;65486;53.144;18.134;2023-11-21T11:57:41;101132.91;;;0.74;80.53
76598;BME280;65486;53.144;18.134;2023-11-21T12:02:49;101134.59;;;0.64;79.76
76598;BME280;65486;53.144;18.134;2023-11-21T12:05:19;101129.52;;;0.60;79.17
76598;BME280;65486;53.144;18.134;2023-11-21T12:07:51;101129.64;;;0.56;80.42
76598;BME280;65486;53.144;18.134;2023-11-21T12:10:24;101134.63;;;0.53;80.47
76598;BME280;65486;53.144;18.134;2023-11-21T12:12:52;101128.90;;;0.50;81.06
76598;BME280;65486;53.144;18.134;2023-11-21T12:15:19;101125.73;;;0.50;80.84
76598;BME280;65486;53.144;18.134;2023-11-21T12:17:48;101131.00;;;0.46;80.01
76598;BME280;65486;53.144;18.134;2023-11-21T12:20:21;101132.48;;;0.41;80.76
76598;BME280;65486;53.144;18.134;2023-11-21T12:22:53;101139.70;;;0.38;80.95
76598;BME280;65486;53.144;18.134;2023-11-21T12:25:23;101136.18;;;0.35;80.85
76598;BME280;65486;53.144;18.134;2023-11-21T12:27:52;101143.84;;;0.34;81.79
76598;BME280;65486;53.144;18.134;2023-11-21T12:30:22;101140.45;;;0.34;80.94
76598;BME280;65486;53.144;18.134;2023-11-21T12:32:51;101140.79;;;0.30;79.96
76598;BME280;65486;53.144;18.134;2023-11-21T12:35:20;101133.39;;;0.27;80.56
76598;BME280;65486;53.144;18.134;2023-11-21T12:37:49;101135.05;;;0.26;81.48
76598;BME280;65486;53.144;18.134;2023-11-21T12:40:18;101143.54;;;0.26;81.62
76598;BME280;65486;53.144;18.134;2023-11-21T12:42:46;101139.36;;;0.26;81.79
76598;BME280;65486;53.144;18.134;2023-11-21T12:47:45;101141.55;;;0.26;81.41
76598;BME280;65486;53.144;18.134;2023-11-21T12:50:12;101145.21;;;0.27;82.38
76598;BME280;65486;53.144;18.134;2023-11-21T12:52:46;101152.19;;;0.29;81.86
76598;BME280;65486;53.144;18.134;2023-11-21T12:55:18;101156.35;;;0.30;81.37
76598;BME280;65486;53.144;18.134;2023-11-21T12:57:48;101162.88;;;0.32;82.17
76598;BME280;65486;53.144;18.134;2023-11-21T13:00:19;101164.73;;;0.35;82.06
76598;BME280;65486;53.144;18.134;2023-11-21T13:02:58;101168.94;;;0.36;80.53
76598;BME280;65486;53.144;18.134;2023-11-21T13:05:32;101169.50;;;0.36;80.52
76598;BME280;65486;53.144;18.134;2023-11-21T13:08:03;101172.83;;;0.39;80.64
76598;BME280;65486;53.144;18.134;2023-11-21T13:10:36;101178.20;;;0.43;80.28
76598;BME280;65486;53.144;18.134;2023-11-21T13:13:06;101181.91;;;0.47;79.58
76598;BME280;65486;53.144;18.134;2023-11-21T13:15:40;101186.41;;;0.49;80.08
76598;BME280;65486;53.144;18.134;2023-11-21T13:18:10;101195.01;;;0.51;80.47